createdAt,value
2018-07-21T00:01:59.501Z,20.90
2018-07-21T00:12:09.023Z,20.90
2018-07-21T00:22:25.100Z,20.90
2018-07-21T00:27:29.897Z,20.90
2018-07-21T00:32:34.543Z,20.80
2018-07-21T00:37:39.146Z,20.80
2018-07-21T00:42:44.096Z,20.80
2018-07-21T00:47:48.797Z,20.90
2018-07-21T00:52:53.678Z,20.90
2018-07-21T00:57:58.162Z,20.90
2018-07-21T01:03:02.928Z,20.90
2018-07-21T01:08:07.574Z,20.80
2018-07-21T01:13:12.296Z,20.90
2018-07-21T01:18:17.017Z,20.90
2018-07-21T01:23:21.987Z,20.80
2018-07-21T01:28:26.845Z,20.70
2018-07-21T01:33:31.553Z,20.70
2018-07-21T01:38:36.915Z,20.60
2018-07-21T01:43:42.453Z,20.40
2018-07-21T01:48:48.031Z,20.20
2018-07-21T01:53:52.643Z,20.10
2018-07-21T01:58:57.406Z,20.10
2018-07-21T02:04:02.479Z,20.10
2018-07-21T02:09:09.586Z,20.00
2018-07-21T02:14:14.244Z,20.10
2018-07-21T02:19:18.972Z,20.20
2018-07-21T02:24:23.733Z,20.30
2018-07-21T02:29:28.346Z,20.30
2018-07-21T02:34:33.304Z,20.40
2018-07-21T02:39:38.141Z,20.60
2018-07-21T02:44:42.866Z,20.70
2018-07-21T02:49:47.758Z,20.70
2018-07-21T02:54:52.449Z,20.70
2018-07-21T02:59:57.023Z,20.60
2018-07-21T03:05:01.819Z,20.60
2018-07-21T03:10:06.477Z,20.60
2018-07-21T03:15:11.404Z,20.60
2018-07-21T03:20:16.152Z,20.50
2018-07-21T03:25:20.855Z,20.60
2018-07-21T03:30:25.256Z,20.60
2018-07-21T03:35:30.024Z,20.60
2018-07-21T03:40:34.947Z,20.50
2018-07-21T03:45:39.717Z,20.50
2018-07-21T03:50:44.565Z,20.40
2018-07-21T03:55:49.286Z,20.30
2018-07-21T04:00:54.019Z,20.30
2018-07-21T04:05:59.423Z,20.20
2018-07-21T04:11:04.657Z,20.30
2018-07-21T04:16:09.415Z,20.40
2018-07-21T04:21:13.963Z,20.40
2018-07-21T04:26:19.015Z,20.30
2018-07-21T04:31:23.564Z,20.30
2018-07-21T04:36:29.005Z,20.30
2018-07-21T04:41:33.727Z,20.30
2018-07-21T04:46:38.383Z,20.30
2018-07-21T04:51:43.111Z,20.30
2018-07-21T04:56:47.945Z,20.20
2018-07-21T05:01:52.808Z,20.20
2018-07-21T05:06:57.241Z,20.10
2018-07-21T05:12:01.970Z,20.10
2018-07-21T05:17:06.763Z,20.10
2018-07-21T05:22:11.412Z,20.10
2018-07-21T05:27:16.239Z,20.10
2018-07-21T05:32:22.010Z,20.00
2018-07-21T05:37:26.757Z,20.00
2018-07-21T05:42:31.386Z,20.10
2018-07-21T05:47:36.643Z,20.20
2018-07-21T05:52:41.310Z,20.30
2018-07-21T05:57:46.294Z,20.40
2018-07-21T06:02:51.131Z,20.40
2018-07-21T06:07:56.584Z,20.60
2018-07-21T06:13:01.704Z,20.70
2018-07-21T06:18:06.208Z,20.90
2018-07-21T06:23:10.909Z,20.90
2018-07-21T06:28:15.548Z,20.90
2018-07-21T06:33:20.510Z,21.10
2018-07-21T06:38:25.262Z,20.80
2018-07-21T06:43:30.953Z,21.00
2018-07-21T06:48:35.737Z,21.20
2018-07-21T06:53:40.382Z,21.10
2018-07-21T06:58:45.425Z,21.30
2018-07-21T07:03:50.273Z,21.30
2018-07-21T07:08:54.909Z,21.40
2018-07-21T07:13:59.803Z,21.50
2018-07-21T07:19:04.550Z,22.00
2018-07-21T07:24:09.518Z,22.10
2018-07-21T07:29:14.144Z,22.20
2018-07-21T07:34:19.110Z,22.40
2018-07-21T07:39:23.842Z,22.50
2018-07-21T07:44:28.835Z,22.50
2018-07-21T07:49:33.476Z,22.30
2018-07-21T07:54:38.262Z,22.20
2018-07-21T07:59:42.756Z,22.10
2018-07-21T08:04:47.673Z,22.00
2018-07-21T08:09:52.390Z,21.90
2018-07-21T08:14:57.171Z,21.90
2018-07-21T08:20:02.039Z,21.80
2018-07-21T08:25:06.948Z,21.40
2018-07-21T08:30:12.431Z,21.20
2018-07-21T08:35:17.209Z,21.60
2018-07-21T08:40:21.743Z,22.30
2018-07-21T08:45:27.230Z,22.40
2018-07-21T08:50:32.090Z,22.30
2018-07-21T08:55:36.962Z,22.00
2018-07-21T09:00:42.800Z,22.00
2018-07-21T09:05:47.703Z,22.00
2018-07-21T09:10:52.562Z,22.30
2018-07-21T09:15:57.212Z,22.30
2018-07-21T09:21:02.027Z,22.60
2018-07-21T09:26:08.011Z,23.40
2018-07-21T09:31:13.463Z,24.20
2018-07-21T09:36:18.148Z,23.60
2018-07-21T09:41:22.813Z,23.70
2018-07-21T09:46:27.411Z,24.40
2018-07-21T09:51:32.184Z,24.20
2018-07-21T09:56:37.163Z,24.40
2018-07-21T10:06:46.097Z,25.10
2018-07-21T10:11:51.115Z,26.00
2018-07-21T10:16:55.881Z,25.60
2018-07-21T10:22:00.558Z,25.30
2018-07-21T10:27:10.673Z,24.80
2018-07-21T10:32:15.249Z,25.00
2018-07-21T10:37:20.454Z,25.30
2018-07-21T10:42:25.050Z,25.90
2018-07-21T10:47:30.280Z,26.00
2018-07-21T10:52:37.318Z,25.30
2018-07-21T10:57:42.062Z,24.10
2018-07-21T11:02:46.979Z,24.40
2018-07-21T11:07:52.042Z,25.60
2018-07-21T11:12:56.661Z,26.70
2018-07-21T11:18:01.519Z,26.50
2018-07-21T11:23:06.349Z,24.90
2018-07-21T11:28:11.173Z,24.40
2018-07-21T11:33:15.811Z,24.20
2018-07-21T11:38:20.527Z,24.30
2018-07-21T11:43:25.714Z,24.60
2018-07-21T11:48:30.545Z,25.10
2018-07-21T11:53:35.259Z,26.30
2018-07-21T11:58:40.025Z,27.00
2018-07-21T12:03:44.722Z,27.10
2018-07-21T12:08:49.489Z,26.10
2018-07-21T12:13:54.110Z,25.40
2018-07-21T12:18:58.832Z,25.40
2018-07-21T12:24:03.797Z,25.70
2018-07-21T12:29:08.992Z,28.60
2018-07-21T12:34:13.898Z,29.70
2018-07-21T12:39:18.493Z,29.40
2018-07-21T12:44:23.319Z,29.90
2018-07-21T12:49:27.989Z,29.10
2018-07-21T12:54:32.676Z,29.60
2018-07-21T12:59:37.667Z,29.30
2018-07-21T13:04:42.284Z,29.20
2018-07-21T13:09:47.103Z,29.60
2018-07-21T13:14:51.778Z,29.50
2018-07-21T13:19:57.298Z,28.10
2018-07-21T13:25:02.136Z,28.70
2018-07-21T13:30:08.205Z,28.90
2018-07-21T13:35:12.814Z,28.70
2018-07-21T13:40:17.569Z,28.70
2018-07-21T13:45:22.450Z,28.80
2018-07-21T13:50:27.244Z,28.60
2018-07-21T13:55:31.962Z,28.30
2018-07-21T14:00:36.647Z,28.00
2018-07-21T14:05:41.304Z,28.70
2018-07-21T14:10:45.954Z,29.10
2018-07-21T14:15:50.746Z,28.10
2018-07-21T14:20:56.002Z,27.50
2018-07-21T14:26:00.862Z,27.40
2018-07-21T14:31:05.874Z,26.60
2018-07-21T14:36:10.659Z,25.30
2018-07-21T14:41:15.605Z,25.40
2018-07-21T14:46:21.522Z,24.80
2018-07-21T14:51:26.374Z,24.60
2018-07-21T14:56:31.636Z,25.20
2018-07-21T15:01:36.437Z,25.80
2018-07-21T15:06:41.287Z,25.10
2018-07-21T15:11:46.426Z,24.30
2018-07-21T15:16:51.510Z,24.40
2018-07-21T15:21:56.670Z,24.40
2018-07-21T15:27:01.532Z,24.20
2018-07-21T15:32:06.618Z,24.10
2018-07-21T15:37:11.211Z,24.10
2018-07-21T15:42:15.975Z,24.20
2018-07-21T15:47:20.675Z,24.00
2018-07-21T15:52:25.315Z,24.10
2018-07-21T15:57:29.959Z,24.30
2018-07-21T16:02:34.965Z,24.10
2018-07-21T16:07:39.852Z,24.10
2018-07-21T16:12:44.485Z,24.10
2018-07-21T16:17:49.166Z,23.50
2018-07-21T16:22:53.941Z,23.00
2018-07-21T16:27:59.962Z,22.70
2018-07-21T16:33:05.349Z,23.00
2018-07-21T16:38:10.007Z,23.10
2018-07-21T16:43:14.593Z,23.00
2018-07-21T16:48:19.988Z,22.80
2018-07-21T16:53:24.684Z,22.60
2018-07-21T16:58:29.718Z,22.40
2018-07-21T17:03:34.319Z,22.20
2018-07-21T17:08:39.121Z,22.30
2018-07-21T17:13:43.987Z,22.20
2018-07-21T17:18:49.469Z,22.10
2018-07-21T17:23:54.341Z,22.10
2018-07-21T17:28:59.072Z,21.90
2018-07-21T17:34:03.679Z,21.50
2018-07-21T17:39:11.101Z,21.30
2018-07-21T17:44:15.977Z,20.70
2018-07-21T17:49:22.024Z,20.60
2018-07-21T17:54:26.788Z,20.80
2018-07-21T17:59:31.508Z,20.70
2018-07-21T18:04:36.737Z,20.50
2018-07-21T18:09:41.605Z,20.40
2018-07-21T18:14:46.348Z,20.50
2018-07-21T18:19:51.039Z,20.40
2018-07-21T18:24:55.776Z,20.40
2018-07-21T18:30:01.228Z,20.40
2018-07-21T18:35:05.827Z,20.30
2018-07-21T18:40:10.322Z,20.30
2018-07-21T18:45:15.015Z,20.40
2018-07-21T18:50:19.600Z,20.40
2018-07-21T18:55:24.148Z,20.30
2018-07-21T19:00:28.829Z,20.20
2018-07-21T19:05:34.385Z,20.10
2018-07-21T19:10:39.322Z,20.10
2018-07-21T19:15:49.158Z,20.00
2018-07-21T19:21:08.683Z,19.90
2018-07-21T19:26:18.494Z,19.80
2018-07-21T19:31:23.140Z,19.70
2018-07-21T19:36:27.884Z,19.70
2018-07-21T19:41:37.655Z,19.70
2018-07-21T19:46:42.510Z,19.70
2018-07-21T19:51:47.101Z,19.60
2018-07-21T19:56:52.010Z,19.60
2018-07-21T20:01:56.824Z,19.60
2018-07-21T20:07:01.566Z,19.70
2018-07-21T20:12:06.977Z,19.70
2018-07-21T20:17:11.777Z,19.70
2018-07-21T20:22:16.458Z,19.70
2018-07-21T20:27:21.297Z,19.80
2018-07-21T20:32:26.809Z,19.80
2018-07-21T20:37:31.626Z,19.70
2018-07-21T20:42:36.412Z,19.60
2018-07-21T20:47:41.301Z,19.50
2018-07-21T20:52:46.018Z,19.30
2018-07-21T20:57:50.738Z,19.10
2018-07-21T21:02:55.600Z,19.00
2018-07-21T21:08:00.903Z,18.90
2018-07-21T21:13:05.989Z,18.80
2018-07-21T21:18:10.750Z,18.80
2018-07-21T21:23:16.152Z,18.80
2018-07-21T21:28:21.619Z,18.80
2018-07-21T21:33:26.314Z,18.80
2018-07-21T21:38:31.505Z,18.80
2018-07-21T21:43:36.215Z,18.90
2018-07-21T21:48:40.949Z,18.70
2018-07-21T21:53:45.899Z,18.60
2018-07-21T21:58:51.003Z,18.40
2018-07-21T22:03:56.501Z,18.30
2018-07-21T22:09:01.366Z,18.30
2018-07-21T22:14:06.909Z,18.30
2018-07-21T22:19:11.748Z,18.30
2018-07-21T22:24:16.492Z,18.20
2018-07-21T22:29:22.277Z,18.10
2018-07-21T22:34:27.087Z,18.10
2018-07-21T22:39:31.893Z,18.10
2018-07-21T22:44:36.598Z,18.20
2018-07-21T22:49:42.209Z,18.20
2018-07-21T22:54:47.003Z,18.20
2018-07-21T22:59:51.670Z,18.20
2018-07-21T23:04:56.564Z,18.10
2018-07-21T23:10:01.342Z,18.10
2018-07-21T23:15:07.686Z,18.10
2018-07-21T23:20:12.341Z,18.00
2018-07-21T23:25:17.001Z,18.10
2018-07-21T23:30:22.656Z,18.00
2018-07-21T23:35:28.088Z,18.00
2018-07-21T23:40:33.100Z,18.00
2018-07-21T23:45:37.775Z,17.90
2018-07-21T23:50:42.800Z,17.90
2018-07-21T23:55:47.529Z,17.90
